createdAt,value
2023-04-15T00:00:08.497Z,95741.89
2023-04-15T00:03:02.575Z,95740.14
2023-04-15T00:05:31.866Z,95742.38
2023-04-15T00:08:00.052Z,95746.20
2023-04-15T00:10:28.217Z,95752.32
2023-04-15T00:12:56.178Z,95752.28
2023-04-15T00:15:24.381Z,95747.92
2023-04-15T00:17:52.691Z,95747.35
2023-04-15T00:20:20.957Z,95744.13
2023-04-15T00:22:49.293Z,95745.96
2023-04-15T00:25:17.465Z,95742.95
2023-04-15T00:27:45.530Z,95743.36
2023-04-15T00:30:16.273Z,95745.92
2023-04-15T00:32:45.013Z,95743.39
2023-04-15T00:35:13.236Z,95743.35
2023-04-15T00:37:41.420Z,95744.70
2023-04-15T00:40:12.517Z,95746.58
2023-04-15T00:42:40.824Z,95750.11
2023-04-15T00:45:09.386Z,95753.99
2023-04-15T00:47:37.919Z,95753.41
2023-04-15T00:50:06.926Z,95750.85
2023-04-15T00:52:35.171Z,95746.61
2023-04-15T00:55:04.921Z,95747.43
2023-04-15T00:57:33.458Z,95746.52
2023-04-15T01:00:01.836Z,95747.99
2023-04-15T01:02:30.044Z,95750.23
2023-04-15T01:04:58.422Z,95743.64
2023-04-15T01:07:26.413Z,95744.41
2023-04-15T01:09:54.807Z,95744.70
2023-04-15T01:12:22.910Z,95740.66
2023-04-15T01:14:51.444Z,95741.11
2023-04-15T01:17:19.688Z,95744.37
2023-04-15T01:19:47.865Z,95738.83
2023-04-15T01:22:16.277Z,95741.02
2023-04-15T01:24:49.435Z,95736.30
2023-04-15T01:27:17.809Z,95733.58
2023-04-15T01:29:45.739Z,95729.09
2023-04-15T01:32:13.671Z,95729.58
2023-04-15T01:34:41.743Z,95729.81
2023-04-15T01:37:09.774Z,95729.20
2023-04-15T01:39:37.951Z,95732.88
2023-04-15T01:42:06.025Z,95733.90
2023-04-15T01:44:33.980Z,95728.14
2023-04-15T01:47:02.190Z,95727.52
2023-04-15T01:49:30.446Z,95724.14
2023-04-15T01:51:58.361Z,95726.88
2023-04-15T01:54:27.607Z,95728.67
2023-04-15T01:56:56.916Z,95729.45
2023-04-15T01:59:25.724Z,95735.15
2023-04-15T02:01:54.007Z,95736.98
2023-04-15T02:04:21.941Z,95741.66
2023-04-15T02:06:50.116Z,95737.72
2023-04-15T02:09:18.230Z,95735.19
2023-04-15T02:11:47.194Z,95734.92
2023-04-15T02:14:15.264Z,95736.73
2023-04-15T02:16:43.245Z,95738.94
2023-04-15T02:19:11.705Z,95741.30
2023-04-15T02:21:40.096Z,95741.46
2023-04-15T02:24:08.164Z,95739.63
2023-04-15T02:26:36.443Z,95737.66
2023-04-15T02:29:04.519Z,95738.27
2023-04-15T02:31:37.200Z,95735.30
2023-04-15T02:34:05.675Z,95734.54
2023-04-15T02:36:34.868Z,95734.78
2023-04-15T02:39:04.414Z,95733.64
2023-04-15T02:41:32.657Z,95736.20
2023-04-15T02:44:00.830Z,95736.33
2023-04-15T02:46:29.588Z,95737.34
2023-04-15T02:49:00.220Z,95736.93
2023-04-15T02:51:31.380Z,95735.30
2023-04-15T02:53:59.467Z,95732.62
2023-04-15T02:56:27.847Z,95729.23
2023-04-15T02:58:56.955Z,95726.13
2023-04-15T03:01:25.013Z,95722.34
2023-04-15T03:03:53.385Z,95723.84
2023-04-15T03:06:21.677Z,95721.80
2023-04-15T03:08:51.772Z,95720.55
2023-04-15T03:11:20.365Z,95724.39
2023-04-15T03:13:48.552Z,95729.17
2023-04-15T03:16:36.982Z,95728.64
2023-04-15T03:19:05.257Z,95729.73
2023-04-15T03:21:33.964Z,95730.02
2023-04-15T03:24:02.425Z,95734.41
2023-04-15T03:26:31.757Z,95740.80
2023-04-15T03:29:02.573Z,95744.52
2023-04-15T03:31:31.164Z,95740.65
2023-04-15T03:33:59.237Z,95738.98
2023-04-15T03:36:29.643Z,95739.87
2023-04-15T03:38:58.237Z,95744.15
2023-04-15T03:41:26.813Z,95748.51
2023-04-15T03:43:55.089Z,95751.19
2023-04-15T03:46:23.015Z,95748.65
2023-04-15T03:48:51.343Z,95754.36
2023-04-15T03:51:19.416Z,95758.89
2023-04-15T03:53:47.482Z,95759.33
2023-04-15T03:56:16.074Z,95763.96
2023-04-15T03:58:44.134Z,95768.64
2023-04-15T04:01:12.290Z,95770.46
2023-04-15T04:03:41.132Z,95771.63
2023-04-15T04:06:09.398Z,95772.77
2023-04-15T04:08:37.451Z,95775.36
2023-04-15T04:11:05.845Z,95779.31
2023-04-15T04:13:33.914Z,95779.55
2023-04-15T04:16:02.146Z,95774.16
2023-04-15T04:18:33.741Z,95776.70
2023-04-15T04:21:01.718Z,95780.65
2023-04-15T04:23:29.982Z,95784.14
2023-04-15T04:25:57.855Z,95785.69
2023-04-15T04:28:26.016Z,95783.48
2023-04-15T04:30:54.087Z,95783.65
2023-04-15T04:33:22.369Z,95784.42
2023-04-15T04:35:50.217Z,95791.01
2023-04-15T04:38:18.197Z,95792.11
2023-04-15T04:40:46.880Z,95795.46
2023-04-15T04:43:16.180Z,95796.27
2023-04-15T04:45:44.263Z,95800.49
2023-04-15T04:48:12.539Z,95805.14
2023-04-15T04:50:40.608Z,95806.23
2023-04-15T04:53:09.188Z,95809.48
2023-04-15T04:55:37.365Z,95807.17
2023-04-15T04:58:05.251Z,95810.91
2023-04-15T05:00:33.818Z,95808.44
2023-04-15T05:03:02.070Z,95805.09
2023-04-15T05:05:30.096Z,95804.23
2023-04-15T05:07:58.241Z,95810.27
2023-04-15T05:10:26.197Z,95810.63
2023-04-15T05:12:54.476Z,95808.67
2023-04-15T05:15:22.405Z,95804.64
2023-04-15T05:17:50.372Z,95808.14
2023-04-15T05:20:18.489Z,95808.60
2023-04-15T05:22:46.560Z,95810.27
2023-04-15T05:25:14.451Z,95811.68
2023-04-15T05:27:42.705Z,95816.54
2023-04-15T05:30:13.406Z,95821.18
2023-04-15T05:32:41.897Z,95824.64
2023-04-15T05:35:10.003Z,95827.21
2023-04-15T05:37:38.081Z,95828.72
2023-04-15T05:40:06.969Z,95834.84
2023-04-15T05:42:35.346Z,95831.41
2023-04-15T05:45:05.765Z,95832.42
2023-04-15T05:47:33.880Z,95831.41
2023-04-15T05:50:02.111Z,95834.77
2023-04-15T05:52:31.110Z,95837.09
2023-04-15T05:54:59.071Z,95838.33
2023-04-15T05:57:26.992Z,95845.04
2023-04-15T05:59:57.384Z,95853.23
2023-04-15T06:02:25.512Z,95857.00
2023-04-15T06:04:54.006Z,95859.30
2023-04-15T06:07:22.216Z,95862.92
2023-04-15T06:09:50.582Z,95863.38
2023-04-15T06:12:18.554Z,95855.95
2023-04-15T06:14:46.651Z,95851.84
2023-04-15T06:17:15.205Z,95850.78
2023-04-15T06:19:43.280Z,95845.16
2023-04-15T06:22:11.344Z,95847.45
2023-04-15T06:24:39.364Z,95857.59
2023-04-15T06:27:07.337Z,95863.14
2023-04-15T06:29:35.876Z,95866.11
2023-04-15T06:32:03.948Z,95869.51
2023-04-15T06:34:31.999Z,95869.75
2023-04-15T06:37:00.977Z,95873.10
2023-04-15T06:39:29.185Z,95871.08
2023-04-15T06:41:57.637Z,95872.00
2023-04-15T06:44:26.013Z,95872.39
2023-04-15T06:46:54.131Z,95874.03
2023-04-15T06:49:22.483Z,95872.77
2023-04-15T06:51:51.457Z,95878.36
2023-04-15T06:54:19.462Z,95880.90
2023-04-15T06:56:48.150Z,95882.98
2023-04-15T06:59:16.424Z,95892.20
2023-04-15T07:01:44.609Z,95896.32
2023-04-15T07:04:13.087Z,95900.89
2023-04-15T07:06:42.061Z,95904.85
2023-04-15T07:09:10.778Z,95909.20
2023-04-15T07:11:38.924Z,95899.39
2023-04-15T07:14:07.625Z,95894.49
2023-04-15T07:16:35.591Z,95887.53
2023-04-15T07:19:04.045Z,95893.68
2023-04-15T07:21:32.765Z,95897.52
2023-04-15T07:24:00.726Z,95895.71
2023-04-15T07:26:28.891Z,95893.89
2023-04-15T07:28:56.975Z,95891.34
2023-04-15T07:31:25.385Z,95894.61
2023-04-15T07:33:53.621Z,95892.09
2023-04-15T07:36:21.585Z,95895.98
2023-04-15T07:38:49.566Z,95895.98
2023-04-15T07:41:17.632Z,95893.52
2023-04-15T07:43:45.820Z,95892.08
2023-04-15T07:46:13.882Z,95895.32
2023-04-15T07:48:42.877Z,95890.26
2023-04-15T07:51:11.152Z,95894.74
2023-04-15T07:53:38.994Z,95892.84
2023-04-15T07:56:07.641Z,95891.98
2023-04-15T07:58:35.887Z,95891.98
2023-04-15T08:01:05.085Z,95892.30
2023-04-15T08:03:34.042Z,95894.88
2023-04-15T08:06:02.658Z,95891.41
2023-04-15T08:08:31.361Z,95892.59
2023-04-15T08:10:59.514Z,95889.61
2023-04-15T08:13:28.203Z,95896.30
2023-04-15T08:16:18.689Z,95898.92
2023-04-15T08:18:50.550Z,95893.08
2023-04-15T08:21:19.550Z,95893.56
2023-04-15T08:23:48.655Z,95893.16
2023-04-15T08:26:17.849Z,95890.70
2023-04-15T08:28:46.118Z,95889.66
2023-04-15T08:31:15.164Z,95893.89
2023-04-15T08:33:43.341Z,95892.95
2023-04-15T08:36:11.777Z,95891.90
2023-04-15T08:38:39.850Z,95892.59
2023-04-15T08:41:13.244Z,95893.27
2023-04-15T08:43:48.346Z,95896.05
2023-04-15T08:46:16.916Z,95896.21
2023-04-15T08:48:45.127Z,95899.03
2023-04-15T08:51:16.387Z,95894.89
2023-04-15T08:53:46.619Z,95896.34
2023-04-15T08:56:16.034Z,95894.13
2023-04-15T08:58:44.990Z,95888.77
2023-04-15T09:01:13.247Z,95889.55
2023-04-15T09:03:42.190Z,95895.54
2023-04-15T09:06:11.052Z,95895.97
2023-04-15T09:08:39.235Z,95891.31
2023-04-15T09:11:07.305Z,95886.72
2023-04-15T09:13:35.370Z,95891.04
2023-04-15T09:16:04.593Z,95892.51
2023-04-15T09:18:33.993Z,95894.75
2023-04-15T09:21:12.773Z,95892.65
2023-04-15T09:23:42.586Z,95882.89
2023-04-15T09:26:10.791Z,95878.80
2023-04-15T09:28:42.848Z,95875.70
2023-04-15T09:31:11.365Z,95872.22
2023-04-15T09:33:55.169Z,95871.75
2023-04-15T09:36:25.119Z,95864.45
2023-04-15T09:38:57.585Z,95863.17
2023-04-15T09:41:26.763Z,95864.45
2023-04-15T09:43:54.941Z,95862.39
2023-04-15T09:46:41.336Z,95864.34
2023-04-15T09:49:10.482Z,95860.92
2023-04-15T09:51:39.009Z,95854.57
2023-04-15T09:54:07.485Z,95858.07
2023-04-15T09:56:38.584Z,95861.64
2023-04-15T09:59:07.125Z,95865.58
2023-04-15T10:01:36.336Z,95872.83
2023-04-15T10:04:05.316Z,95874.52
2023-04-15T10:06:33.615Z,95868.62
2023-04-15T10:09:01.720Z,95865.14
2023-04-15T10:11:31.563Z,95866.81
2023-04-15T10:14:00.408Z,95867.05
2023-04-15T10:16:29.055Z,95861.55
2023-04-15T10:18:57.441Z,95858.83
2023-04-15T10:21:25.599Z,95858.29
2023-04-15T10:23:53.606Z,95854.08
2023-04-15T10:26:21.546Z,95852.17
2023-04-15T10:28:49.722Z,95852.13
2023-04-15T10:31:18.767Z,95854.84
2023-04-15T10:33:47.600Z,95849.61
2023-04-15T10:36:16.188Z,95842.33
2023-04-15T10:38:45.553Z,95836.57
2023-04-15T10:41:19.951Z,95834.69
2023-04-15T10:43:56.208Z,95840.55
2023-04-15T10:46:37.021Z,95835.88
2023-04-15T10:49:11.096Z,95831.56
2023-04-15T10:51:43.490Z,95832.58
2023-04-15T10:54:31.163Z,95833.72
2023-04-15T10:57:02.934Z,95833.27
2023-04-15T10:59:51.795Z,95835.23
2023-04-15T11:02:19.991Z,95833.19
2023-04-15T11:04:54.347Z,95830.24
2023-04-15T11:07:48.679Z,95828.83
2023-04-15T11:10:26.164Z,95830.98
2023-04-15T11:12:58.464Z,95833.48
2023-04-15T11:15:30.589Z,95836.45
2023-04-15T11:17:59.784Z,95838.34
2023-04-15T11:20:27.966Z,95833.52
2023-04-15T11:23:13.874Z,95832.10
2023-04-15T11:25:43.512Z,95834.36
2023-04-15T11:28:12.146Z,95835.40
2023-04-15T11:30:40.621Z,95834.82
2023-04-15T11:33:09.976Z,95836.61
2023-04-15T11:35:38.195Z,95838.36
2023-04-15T11:38:11.388Z,95842.40
2023-04-15T11:40:39.991Z,95841.84
2023-04-15T11:43:08.769Z,95841.67
2023-04-15T11:45:37.841Z,95837.33
2023-04-15T11:48:07.888Z,95835.83
2023-04-15T11:50:36.845Z,95838.23
2023-04-15T11:53:08.140Z,95839.82
2023-04-15T11:55:47.358Z,95840.37
2023-04-15T11:58:23.420Z,95836.38
2023-04-15T12:00:54.986Z,95838.80
2023-04-15T12:03:24.287Z,95835.70
2023-04-15T12:06:11.792Z,95828.09
2023-04-15T12:08:59.233Z,95835.06
2023-04-15T12:11:27.114Z,95836.41
2023-04-15T12:14:09.180Z,95837.48
2023-04-15T12:16:48.669Z,95838.87
2023-04-15T12:19:19.770Z,95833.48
2023-04-15T12:21:48.994Z,95834.95
2023-04-15T12:24:21.330Z,95836.09
2023-04-15T12:26:54.059Z,95832.13
2023-04-15T12:29:25.967Z,95834.36
2023-04-15T12:31:56.228Z,95830.63
2023-04-15T12:34:34.770Z,95826.95
2023-04-15T12:37:04.313Z,95823.77
2023-04-15T12:39:34.990Z,95824.51
2023-04-15T12:42:04.565Z,95825.52
2023-04-15T12:44:33.337Z,95824.39
2023-04-15T12:47:01.559Z,95824.75
2023-04-15T12:49:32.582Z,95832.00
2023-04-15T12:52:01.667Z,95841.66
2023-04-15T12:54:30.274Z,95837.93
2023-04-15T12:56:58.762Z,95839.04
2023-04-15T12:59:26.919Z,95831.10
2023-04-15T13:01:55.150Z,95829.99
2023-04-15T13:04:23.508Z,95831.42
2023-04-15T13:06:52.058Z,95828.80
2023-04-15T13:09:20.841Z,95830.05
2023-04-15T13:11:49.517Z,95829.79
2023-04-15T13:14:17.900Z,95833.57
2023-04-15T13:16:45.833Z,95840.73
2023-04-15T13:19:14.128Z,95849.56
2023-04-15T13:21:42.111Z,95849.94
2023-04-15T13:24:10.185Z,95845.06
2023-04-15T13:26:38.357Z,95858.39
2023-04-15T13:29:06.951Z,95864.58
2023-04-15T13:31:35.058Z,95873.40
2023-04-15T13:34:03.410Z,95876.58
2023-04-15T13:36:31.869Z,95876.86
2023-04-15T13:39:00.253Z,95878.66
2023-04-15T13:41:28.359Z,95879.98
2023-04-15T13:43:57.626Z,95886.27
2023-04-15T13:46:26.317Z,95889.91
2023-04-15T13:48:54.418Z,95903.31
2023-04-15T13:51:22.452Z,95903.40
2023-04-15T13:53:50.641Z,95909.83
2023-04-15T13:56:18.710Z,95908.00
2023-04-15T13:58:46.794Z,95907.71
2023-04-15T14:01:14.796Z,95916.78
2023-04-15T14:03:43.196Z,95908.07
2023-04-15T14:06:11.510Z,95911.19
2023-04-15T14:08:39.712Z,95912.59
2023-04-15T14:11:07.960Z,95915.34
2023-04-15T14:13:36.760Z,95915.15
2023-04-15T14:16:05.322Z,95916.77
2023-04-15T14:18:33.494Z,95923.16
2023-04-15T14:21:01.574Z,95930.41
2023-04-15T14:23:29.655Z,95933.09
2023-04-15T14:25:57.812Z,95935.99
2023-04-15T14:28:25.984Z,95936.39
2023-04-15T14:30:53.975Z,95937.79
2023-04-15T14:33:22.135Z,95941.11
2023-04-15T14:35:51.325Z,95941.94
2023-04-15T14:38:19.408Z,95943.98
2023-04-15T14:40:47.591Z,95950.77
2023-04-15T14:43:15.504Z,95955.61
2023-04-15T14:45:44.665Z,95951.11
2023-04-15T14:48:13.805Z,95952.84
2023-04-15T14:50:42.014Z,95953.17
2023-04-15T14:53:09.905Z,95952.60
2023-04-15T14:55:38.171Z,95956.10
2023-04-15T14:58:08.350Z,95956.88
2023-04-15T15:00:39.335Z,95963.77
2023-04-15T15:03:12.933Z,95968.20
2023-04-15T15:05:45.793Z,95974.18
2023-04-15T15:08:14.080Z,95980.48
2023-04-15T15:10:49.247Z,95985.46
2023-04-15T15:13:18.887Z,95997.92
2023-04-15T15:15:49.513Z,96020.65
2023-04-15T15:18:19.536Z,96068.56
2023-04-15T15:20:48.068Z,96054.08
2023-04-15T15:23:16.150Z,96063.77
2023-04-15T15:25:44.650Z,96081.16
2023-04-15T15:28:12.799Z,96083.05
2023-04-15T15:30:40.759Z,96087.09
2023-04-15T15:33:08.686Z,96095.02
2023-04-15T15:35:36.677Z,96088.77
2023-04-15T15:38:04.772Z,96084.20
2023-04-15T15:40:32.847Z,96079.98
2023-04-15T15:43:00.808Z,96074.23
2023-04-15T15:45:28.823Z,96069.73
2023-04-15T15:47:58.488Z,96068.20
2023-04-15T15:50:26.880Z,96057.09
2023-04-15T15:52:55.475Z,96043.27
2023-04-15T15:55:25.367Z,96035.20
2023-04-15T15:57:54.471Z,96032.30
2023-04-15T16:00:23.596Z,96027.33
2023-04-15T16:03:06.706Z,96023.86
2023-04-15T16:05:36.322Z,96019.95
2023-04-15T16:08:04.673Z,96011.60
2023-04-15T16:10:32.750Z,96007.23
2023-04-15T16:13:01.125Z,96012.06
2023-04-15T16:15:29.194Z,96013.01
2023-04-15T16:17:57.235Z,96007.98
2023-04-15T16:20:25.247Z,96007.73
2023-04-15T16:22:53.208Z,96002.80
2023-04-15T16:25:21.481Z,96004.80
2023-04-15T16:28:00.846Z,96009.56
2023-04-15T16:30:31.449Z,96011.73
2023-04-15T16:32:59.334Z,96013.30
2023-04-15T16:35:27.490Z,96016.83
2023-04-15T16:37:55.774Z,96015.14
2023-04-15T16:40:24.044Z,96016.75
2023-04-15T16:42:52.442Z,96019.58
2023-04-15T16:45:20.489Z,96019.54
2023-04-15T16:47:48.508Z,96020.58
2023-04-15T16:50:16.544Z,96020.16
2023-04-15T16:52:44.711Z,96016.48
2023-04-15T16:55:12.805Z,96016.70
2023-04-15T16:58:03.227Z,96021.09
2023-04-15T17:00:29.005Z,96027.69
2023-04-15T17:02:57.288Z,96033.45
2023-04-15T17:05:27.587Z,96035.50
2023-04-15T17:07:56.079Z,96040.70
2023-04-15T17:10:24.160Z,96047.63
2023-04-15T17:12:52.849Z,96054.15
2023-04-15T17:15:21.073Z,96058.41
2023-04-15T17:17:49.005Z,96065.73
2023-04-15T17:20:20.127Z,96073.48
2023-04-15T17:22:48.581Z,96075.28
2023-04-15T17:25:16.677Z,96081.30
2023-04-15T17:27:44.638Z,96082.82
2023-04-15T17:30:12.619Z,96087.48
2023-04-15T17:32:40.807Z,96092.30
2023-04-15T17:35:09.687Z,96100.86
2023-04-15T17:37:37.685Z,96104.31
2023-04-15T17:40:08.789Z,96107.66
2023-04-15T17:42:37.092Z,96113.23
2023-04-15T17:45:05.685Z,96119.52
2023-04-15T17:47:33.675Z,96124.52
2023-04-15T17:50:01.727Z,96131.48
2023-04-15T17:52:29.772Z,96135.94
2023-04-15T17:54:57.944Z,96137.00
2023-04-15T17:57:26.017Z,96145.30
2023-04-15T17:59:54.083Z,96154.55
2023-04-15T18:02:22.368Z,96159.29
2023-04-15T18:04:50.931Z,96166.89
2023-04-15T18:07:19.022Z,96170.29
2023-04-15T18:09:47.705Z,96174.42
2023-04-15T18:12:16.047Z,96177.40
2023-04-15T18:14:44.264Z,96182.79
2023-04-15T18:17:14.551Z,96187.31
2023-04-15T18:19:43.550Z,96189.80
2023-04-15T18:22:11.749Z,96194.35
2023-04-15T18:24:40.023Z,96197.61
2023-04-15T18:27:07.954Z,96200.27
2023-04-15T18:29:36.741Z,96209.31
2023-04-15T18:32:05.123Z,96218.79
2023-04-15T18:34:33.341Z,96229.21
2023-04-15T18:37:01.532Z,96234.04
2023-04-15T18:39:29.585Z,96235.27
2023-04-15T18:41:57.748Z,96241.11
2023-04-15T18:44:25.836Z,96245.68
2023-04-15T18:46:53.921Z,96244.45
2023-04-15T18:49:21.867Z,96247.59
2023-04-15T18:51:50.065Z,96246.33
2023-04-15T18:54:18.054Z,96245.59
2023-04-15T18:56:45.980Z,96245.95
2023-04-15T18:59:28.050Z,96247.47
2023-04-15T19:01:59.758Z,96249.95
2023-04-15T19:04:29.479Z,96249.83
2023-04-15T19:06:59.366Z,96249.67
2023-04-15T19:09:28.553Z,96248.77
2023-04-15T19:11:57.079Z,96247.45
2023-04-15T19:14:25.120Z,96248.77
2023-04-15T19:16:53.425Z,96247.87
2023-04-15T19:19:21.586Z,96249.05
2023-04-15T19:21:50.287Z,96248.20
2023-04-15T19:24:18.946Z,96251.30
2023-04-15T19:26:51.012Z,96255.17
2023-04-15T19:29:19.082Z,96252.15
2023-04-15T19:31:47.251Z,96254.23
2023-04-15T19:34:15.433Z,96258.11
2023-04-15T19:36:43.388Z,96259.13
2023-04-15T19:39:11.570Z,96258.59
2023-04-15T19:41:39.468Z,96258.88
2023-04-15T19:44:07.476Z,96264.31
2023-04-15T19:46:35.806Z,96270.64
2023-04-15T19:49:04.275Z,96269.33
2023-04-15T19:51:32.746Z,96271.24
2023-04-15T19:54:00.842Z,96269.45
2023-04-15T19:56:29.514Z,96270.27
2023-04-15T19:58:57.776Z,96267.39
2023-04-15T20:01:25.809Z,96262.25
2023-04-15T20:03:54.805Z,96260.78
2023-04-15T20:06:23.132Z,96259.62
2023-04-15T20:08:51.912Z,96265.96
2023-04-15T20:11:20.310Z,96269.59
2023-04-15T20:13:48.376Z,96272.53
2023-04-15T20:16:16.928Z,96272.40
2023-04-15T20:18:44.950Z,96273.98
2023-04-15T20:21:13.193Z,96276.08
2023-04-15T20:23:41.262Z,96277.46
2023-04-15T20:26:09.391Z,96277.82
2023-04-15T20:28:37.409Z,96273.37
2023-04-15T20:31:05.492Z,96275.08
2023-04-15T20:33:33.569Z,96278.02
2023-04-15T20:36:01.715Z,96281.48
2023-04-15T20:38:29.898Z,96286.92
2023-04-15T20:40:58.376Z,96285.16
2023-04-15T20:43:26.346Z,96285.84
2023-04-15T20:45:56.572Z,96286.14
2023-04-15T20:48:25.173Z,96293.28
2023-04-15T20:50:53.326Z,96300.17
2023-04-15T20:53:21.501Z,96299.23
2023-04-15T20:55:49.787Z,96302.16
2023-04-15T20:58:17.968Z,96303.39
2023-04-15T21:00:46.660Z,96304.92
2023-04-15T21:03:15.062Z,96310.56
2023-04-15T21:05:43.175Z,96312.97
2023-04-15T21:08:11.170Z,96314.23
2023-04-15T21:10:40.361Z,96314.36
2023-04-15T21:13:08.433Z,96315.70
2023-04-15T21:15:36.625Z,96314.66
2023-04-15T21:18:04.516Z,96316.73
2023-04-15T21:20:32.967Z,96316.84
2023-04-15T21:23:01.031Z,96320.17
2023-04-15T21:25:29.211Z,96321.27
2023-04-15T21:27:57.255Z,96322.04
2023-04-15T21:30:25.645Z,96319.91
2023-04-15T21:32:53.691Z,96323.22
2023-04-15T21:35:21.703Z,96326.71
2023-04-15T21:37:49.768Z,96329.12
2023-04-15T21:40:19.588Z,96327.52
2023-04-15T21:42:49.190Z,96329.92
2023-04-15T21:45:17.568Z,96333.02
2023-04-15T21:48:00.898Z,96334.40
2023-04-15T21:50:33.776Z,96333.91
2023-04-15T21:53:02.114Z,96331.98
2023-04-15T21:55:30.137Z,96335.36
2023-04-15T21:57:58.302Z,96335.80
2023-04-15T22:00:26.385Z,96332.25
2023-04-15T22:02:54.774Z,96328.06
2023-04-15T22:05:22.928Z,96328.75
2023-04-15T22:07:51.153Z,96331.08
2023-04-15T22:10:21.019Z,96332.98
2023-04-15T22:12:49.189Z,96329.39
2023-04-15T22:15:17.256Z,96330.73
2023-04-15T22:17:45.576Z,96332.67
2023-04-15T22:20:13.917Z,96333.94
2023-04-15T22:22:44.173Z,96336.91
2023-04-15T22:25:13.045Z,96341.44
2023-04-15T22:27:41.021Z,96343.83
2023-04-15T22:30:10.191Z,96346.31
2023-04-15T22:32:38.394Z,96352.09
2023-04-15T22:35:07.365Z,96354.21
2023-04-15T22:37:35.544Z,96353.50
2023-04-15T22:40:04.336Z,96352.55
2023-04-15T22:42:32.409Z,96356.10
2023-04-15T22:45:00.879Z,96359.05
2023-04-15T22:47:28.989Z,96362.21
2023-04-15T22:49:57.337Z,96362.58
2023-04-15T22:52:30.590Z,96371.14
2023-04-15T22:54:59.627Z,96368.40
2023-04-15T22:57:28.512Z,96366.63
2023-04-15T22:59:56.575Z,96361.81
2023-04-15T23:02:24.948Z,96364.05
2023-04-15T23:04:53.315Z,96368.23
2023-04-15T23:07:21.514Z,96362.92
2023-04-15T23:09:49.453Z,96364.17
2023-04-15T23:12:17.449Z,96365.14
2023-04-15T23:14:45.415Z,96367.42
2023-04-15T23:17:13.598Z,96367.70
2023-04-15T23:19:41.765Z,96366.44
2023-04-15T23:22:12.164Z,96369.89
2023-04-15T23:24:40.169Z,96369.58
2023-04-15T23:27:08.297Z,96372.15
2023-04-15T23:29:36.582Z,96369.66
2023-04-15T23:32:05.136Z,96369.00
2023-04-15T23:34:33.253Z,96371.48
2023-04-15T23:37:01.342Z,96373.92
2023-04-15T23:39:30.745Z,96372.11
2023-04-15T23:41:58.687Z,96370.14
2023-04-15T23:44:27.193Z,96369.55
2023-04-15T23:46:55.283Z,96366.90
2023-04-15T23:49:23.381Z,96370.89
2023-04-15T23:51:51.489Z,96368.02
2023-04-15T23:54:19.685Z,96369.36
2023-04-15T23:56:48.385Z,96368.79
2023-04-15T23:59:16.326Z,96366.13
